createdAt,value
2023-02-16T00:00:42.215Z,74.67
2023-02-16T00:05:45.416Z,85.67
2023-02-16T00:11:08.031Z,80.13
2023-02-16T00:16:19.433Z,80.10
2023-02-16T00:21:22.388Z,74.33
2023-02-16T00:26:28.176Z,73.57
2023-02-16T00:31:34.418Z,71.10
2023-02-16T00:36:37.127Z,75.60
2023-02-16T00:41:51.985Z,73.73
2023-02-16T00:46:55.449Z,68.90
2023-02-16T00:51:58.456Z,65.13
2023-02-16T00:57:01.211Z,68.10
2023-02-16T01:02:04.195Z,68.70
2023-02-16T01:07:31.697Z,59.23
2023-02-16T01:12:34.370Z,63.63
2023-02-16T01:17:36.912Z,61.53
2023-02-16T01:22:39.465Z,63.33
2023-02-16T01:27:44.385Z,60.67
2023-02-16T01:32:52.540Z,60.13
2023-02-16T01:37:55.510Z,61.50
2023-02-16T01:43:28.557Z,61.37
2023-02-16T01:48:32.392Z,56.50
2023-02-16T01:53:55.269Z,58.63
2023-02-16T01:59:08.699Z,55.40
2023-02-16T02:04:44.272Z,54.27
2023-02-16T02:10:16.976Z,52.00
2023-02-16T02:15:24.751Z,53.57
2023-02-16T02:20:47.833Z,53.47
2023-02-16T02:26:27.419Z,48.73
2023-02-16T02:31:59.395Z,42.37
2023-02-16T02:37:20.402Z,49.67
2023-02-16T02:42:54.107Z,46.33
2023-02-16T02:47:57.638Z,47.73
2023-02-16T02:53:05.063Z,46.27
2023-02-16T02:58:26.512Z,46.23
2023-02-16T03:03:37.574Z,43.67
2023-02-16T03:08:44.238Z,43.00
2023-02-16T03:13:51.030Z,46.07
2023-02-16T03:19:13.444Z,45.50
2023-02-16T03:24:43.015Z,45.03
2023-02-16T03:29:47.305Z,44.53
2023-02-16T03:34:50.088Z,43.40
2023-02-16T03:40:10.985Z,43.97
2023-02-16T03:45:13.524Z,44.63
2023-02-16T03:50:16.620Z,46.63
2023-02-16T03:55:19.564Z,43.43
2023-02-16T04:00:22.216Z,44.50
2023-02-16T04:05:25.191Z,40.00
2023-02-16T04:10:28.182Z,41.67
2023-02-16T04:15:31.726Z,41.33
2023-02-16T04:20:35.482Z,42.47
2023-02-16T04:25:38.003Z,40.30
2023-02-16T04:30:40.630Z,40.27
2023-02-16T04:35:43.175Z,41.00
2023-02-16T04:40:45.811Z,36.33
2023-02-16T04:45:48.417Z,40.53
2023-02-16T04:50:51.108Z,39.90
2023-02-16T04:55:53.552Z,40.20
2023-02-16T05:00:56.035Z,39.23
2023-02-16T05:05:58.584Z,38.87
2023-02-16T05:11:39.362Z,42.33
2023-02-16T05:16:42.147Z,40.67
2023-02-16T05:21:44.618Z,43.37
2023-02-16T05:26:48.083Z,41.47
2023-02-16T05:31:50.821Z,40.90
2023-02-16T05:36:53.644Z,37.30
2023-02-16T05:41:56.318Z,41.27
2023-02-16T05:46:58.973Z,39.10
2023-02-16T05:52:01.675Z,36.43
2023-02-16T05:57:04.277Z,34.80
2023-02-16T06:02:08.020Z,36.93
2023-02-16T06:07:12.053Z,22.50
2023-02-16T06:12:16.187Z,36.30
2023-02-16T06:17:18.744Z,43.13
2023-02-16T06:22:21.354Z,42.93
2023-02-16T06:27:24.096Z,38.30
2023-02-16T06:32:26.766Z,42.83
2023-02-16T06:37:29.554Z,40.40
2023-02-16T06:42:32.290Z,38.17
2023-02-16T06:47:35.884Z,37.40
2023-02-16T06:52:38.446Z,37.47
2023-02-16T06:57:41.052Z,37.77
2023-02-16T07:02:44.431Z,40.83
2023-02-16T07:07:46.956Z,41.20
2023-02-16T07:12:49.548Z,53.00
2023-02-16T07:17:52.136Z,44.27
2023-02-16T07:22:54.942Z,45.17
2023-02-16T07:27:57.479Z,31.93
2023-02-16T07:32:59.990Z,35.00
2023-02-16T07:38:03.544Z,32.73
2023-02-16T07:43:07.915Z,34.90
2023-02-16T07:48:10.552Z,29.97
2023-02-16T07:53:13.151Z,28.63
2023-02-16T07:58:27.781Z,26.90
2023-02-16T08:03:30.370Z,32.17
2023-02-16T08:08:33.353Z,27.13
2023-02-16T08:13:35.890Z,25.97
2023-02-16T08:18:39.324Z,33.43
2023-02-16T08:23:50.027Z,24.50
2023-02-16T08:28:53.035Z,30.37
2023-02-16T08:33:57.164Z,28.20
2023-02-16T08:39:01.124Z,29.70
2023-02-16T08:44:05.808Z,27.50
2023-02-16T08:49:09.452Z,26.00
2023-02-16T08:54:16.803Z,27.33
2023-02-16T08:59:21.697Z,27.63
2023-02-16T09:04:25.669Z,30.27
2023-02-16T09:09:28.781Z,30.83
2023-02-16T09:14:31.299Z,31.80
2023-02-16T09:19:34.218Z,27.10
2023-02-16T09:24:36.810Z,29.57
2023-02-16T09:29:40.549Z,24.93
2023-02-16T09:34:44.971Z,25.33
2023-02-16T09:39:47.647Z,23.13
2023-02-16T09:45:11.592Z,23.97
2023-02-16T09:50:38.271Z,21.83
2023-02-16T09:56:04.787Z,23.07
2023-02-16T10:01:19.063Z,21.83
2023-02-16T10:06:45.618Z,20.10
2023-02-16T10:12:01.991Z,20.60
2023-02-16T10:17:08.372Z,22.17
2023-02-16T10:22:17.661Z,25.03
2023-02-16T10:27:23.057Z,22.17
2023-02-16T10:32:29.366Z,23.87
2023-02-16T10:37:43.455Z,21.00
2023-02-16T10:42:56.536Z,22.87
2023-02-16T10:48:00.529Z,22.07
2023-02-16T10:53:10.385Z,17.93
2023-02-16T10:58:22.706Z,19.10
2023-02-16T11:03:30.446Z,17.80
2023-02-16T11:08:49.017Z,17.37
2023-02-16T11:14:02.630Z,17.30
2023-02-16T11:19:09.291Z,17.03
2023-02-16T11:24:23.986Z,17.37
2023-02-16T11:29:26.787Z,15.93
2023-02-16T11:34:36.170Z,17.87
2023-02-16T11:39:41.453Z,13.17
2023-02-16T11:44:51.818Z,16.13
2023-02-16T11:50:29.347Z,27.27
2023-02-16T11:55:33.343Z,20.03
2023-02-16T12:00:35.993Z,21.53
2023-02-16T12:06:17.026Z,11.47
2023-02-16T12:11:41.053Z,16.70
2023-02-16T12:17:07.967Z,10.77
2023-02-16T12:22:24.390Z,15.27
2023-02-16T12:28:05.967Z,19.07
2023-02-16T12:33:27.714Z,11.37
2023-02-16T12:38:56.843Z,15.43
2023-02-16T12:44:06.513Z,10.67
2023-02-16T12:49:36.158Z,19.90
2023-02-16T12:55:02.236Z,15.57
2023-02-16T13:00:33.416Z,11.83
2023-02-16T13:05:38.073Z,14.67
2023-02-16T13:11:07.674Z,10.53
2023-02-16T13:16:45.763Z,13.33
2023-02-16T13:21:54.071Z,9.90
2023-02-16T13:27:11.685Z,20.10
2023-02-16T13:32:17.895Z,21.57
2023-02-16T13:37:46.425Z,20.17
2023-02-16T13:43:45.118Z,23.80
2023-02-16T13:48:53.680Z,11.47
2023-02-16T13:53:59.253Z,17.20
2023-02-16T13:59:17.351Z,17.80
2023-02-16T14:04:22.737Z,14.97
2023-02-16T14:09:51.389Z,10.10
2023-02-16T14:14:53.914Z,15.90
2023-02-16T14:20:22.471Z,14.13
2023-02-16T14:25:27.192Z,21.47
2023-02-16T14:30:35.607Z,23.17
2023-02-16T14:35:41.224Z,14.57
2023-02-16T14:40:48.696Z,20.63
2023-02-16T14:46:02.221Z,16.53
2023-02-16T14:51:39.695Z,16.07
2023-02-16T14:56:45.497Z,14.83
2023-02-16T15:01:48.192Z,11.33
2023-02-16T15:06:51.203Z,21.30
2023-02-16T15:12:18.589Z,18.20
2023-02-16T15:17:44.898Z,12.40
2023-02-16T15:23:12.359Z,13.37
2023-02-16T15:28:26.112Z,17.27
2023-02-16T15:33:38.658Z,20.83
2023-02-16T15:38:57.085Z,22.03
2023-02-16T15:44:00.388Z,14.60
2023-02-16T15:49:28.288Z,29.17
2023-02-16T15:54:35.596Z,26.57
2023-02-16T15:59:43.464Z,28.33
2023-02-16T16:04:56.537Z,32.97
2023-02-16T16:10:00.360Z,38.23
2023-02-16T16:15:04.729Z,36.47
2023-02-16T16:20:28.603Z,32.80
2023-02-16T16:25:38.887Z,29.93
2023-02-16T16:30:44.197Z,27.50
2023-02-16T16:35:48.839Z,33.77
2023-02-16T16:40:54.955Z,27.87
2023-02-16T16:46:18.883Z,26.53
2023-02-16T16:51:24.248Z,34.40
2023-02-16T16:56:29.003Z,37.03
2023-02-16T17:01:32.163Z,34.20
2023-02-16T17:06:34.763Z,32.23
2023-02-16T17:11:39.396Z,31.00
2023-02-16T17:16:45.425Z,31.13
2023-02-16T17:21:49.077Z,32.13
2023-02-16T17:26:51.545Z,43.97
2023-02-16T17:31:54.141Z,35.57
2023-02-16T17:37:08.577Z,39.37
2023-02-16T17:42:11.907Z,37.50
2023-02-16T17:47:16.424Z,40.03
2023-02-16T17:52:18.937Z,43.40
2023-02-16T17:57:21.499Z,54.07
2023-02-16T18:02:24.067Z,62.60
2023-02-16T18:07:27.009Z,63.43
2023-02-16T18:12:29.582Z,58.97
2023-02-16T18:17:32.128Z,58.83
2023-02-16T18:22:34.870Z,47.37
2023-02-16T18:27:37.524Z,49.20
2023-02-16T18:32:41.919Z,46.30
2023-02-16T18:37:45.420Z,46.37
2023-02-16T18:42:48.138Z,49.17
2023-02-16T18:47:50.633Z,49.77
2023-02-16T18:52:53.172Z,44.10
2023-02-16T18:57:55.735Z,41.43
2023-02-16T19:02:58.472Z,43.73
2023-02-16T19:08:01.191Z,47.33
2023-02-16T19:13:05.154Z,30.20
2023-02-16T19:18:07.604Z,43.20
2023-02-16T19:23:10.004Z,42.63
2023-02-16T19:28:12.452Z,43.27
2023-02-16T19:33:14.980Z,24.80
2023-02-16T19:38:17.794Z,28.67
2023-02-16T19:43:21.282Z,19.83
2023-02-16T19:48:23.729Z,21.97
2023-02-16T19:53:26.641Z,19.00
2023-02-16T19:58:29.194Z,17.27
2023-02-16T20:03:31.727Z,20.17
2023-02-16T20:08:34.278Z,25.13
2023-02-16T20:13:37.535Z,17.63
2023-02-16T20:18:40.798Z,25.30
2023-02-16T20:23:44.626Z,22.87
2023-02-16T20:28:48.590Z,26.40
2023-02-16T20:33:51.994Z,29.53
2023-02-16T20:38:54.908Z,23.90
2023-02-16T20:43:57.550Z,20.73
2023-02-16T20:49:00.281Z,25.60
2023-02-16T20:54:04.012Z,21.60
2023-02-16T20:59:06.553Z,26.60
2023-02-16T21:04:10.551Z,18.17
2023-02-16T21:09:14.076Z,22.10
2023-02-16T21:14:16.633Z,21.20
2023-02-16T21:19:23.314Z,19.13
2023-02-16T21:24:26.115Z,17.20
2023-02-16T21:29:28.625Z,21.20
2023-02-16T21:34:32.437Z,21.47
2023-02-16T21:39:53.549Z,19.87
2023-02-16T21:45:14.162Z,19.20
2023-02-16T21:50:17.186Z,22.53
2023-02-16T21:55:38.249Z,26.73
2023-02-16T22:00:42.562Z,24.27
2023-02-16T22:05:45.272Z,23.07
2023-02-16T22:10:47.799Z,20.87
2023-02-16T22:15:50.361Z,28.47
2023-02-16T22:20:53.074Z,26.57
2023-02-16T22:25:55.608Z,33.63
2023-02-16T22:30:58.313Z,26.10
2023-02-16T22:36:11.787Z,25.17
2023-02-16T22:41:14.283Z,29.33
2023-02-16T22:46:17.682Z,22.00
2023-02-16T22:51:21.706Z,25.80
2023-02-16T22:56:24.234Z,31.17
2023-02-16T23:01:29.517Z,31.10
2023-02-16T23:06:34.995Z,25.30
2023-02-16T23:11:37.566Z,32.20
2023-02-16T23:16:40.048Z,32.60
2023-02-16T23:21:43.151Z,26.47
2023-02-16T23:26:46.243Z,31.90
2023-02-16T23:31:49.161Z,21.93
2023-02-16T23:36:51.781Z,17.30
2023-02-16T23:41:54.374Z,30.03
2023-02-16T23:46:57.011Z,29.03
2023-02-16T23:51:59.573Z,16.63
2023-02-16T23:57:02.269Z,17.53
